Time;durP1;ratioP1;P1;durP2;ratioP2;P2;SDS_P1;SDS_P2;PMS_P1;PMS_P2;Temp;Humidity;BMP_temperature;BMP_pressure;BME280_temperature;BME280_humidity;BME280_pressure;Samples;Min_cycle;Max_cycle;Signal;HPM_P1;HPM_P2
2020/12/30 00:01:22;;;;;;;8.75;6.00;;;;;;;;;;4982045;28;20191;-86
2020/12/30 00:03:51;;;;;;;8.63;7.57;;;;;;;;;;4974506;28;20177;-87
2020/12/30 00:06:33;;;;;;;8.65;7.25;;;;;;;;;;5001359;28;20177;-87
2020/12/30 00:09:10;;;;;;;8.05;5.93;;;;;;;;;;4985328;28;20172;-88
2020/12/30 00:11:46;;;;;;;;;;;;;;;;;;;;;
2020/12/30 00:14:22;;;;;;;;;;;;;;;;;;;;;
2020/12/30 00:17:05;;;;;;;7.05;6.45;;;;;;;;;;4999756;28;20177;-85
2020/12/30 00:19:31;;;;;;;8.05;7.25;;;;;;;;;;5012216;28;20200;-86
2020/12/30 00:21:58;;;;;;;6.78;6.18;;;;;;;;;;4998531;28;20180;-86
2020/12/30 00:24:24;;;;;;;7.78;7.07;;;;;;;;;;4983273;28;20183;-87
2020/12/30 00:26:53;;;;;;;7.25;6.53;;;;;;;;;;4967432;28;20177;-84
2020/12/30 00:29:22;;;;;;;7.00;6.50;;;;;;;;;;4957015;28;20184;-85
2020/12/30 00:31:48;;;;;;;7.28;6.55;;;;;;;;;;4990758;28;20171;-85
2020/12/30 00:34:15;;;;;;;10.50;8.13;;;;;;;;;;5000428;28;20184;-87
2020/12/30 00:36:41;;;;;;;6.82;6.22;;;;;;;;;;4998264;28;20168;-89
2020/12/30 00:39:07;;;;;;;8.13;6.93;;;;;;;;;;4985137;28;20323;-86
2020/12/30 00:41:36;;;;;;;7.70;6.90;;;;;;;;;;4985026;28;20187;-87
2020/12/30 00:44:03;;;;;;;8.48;7.78;;;;;;;;;;4983917;28;20160;-88
2020/12/30 00:46:32;;;;;;;12.20;7.90;;;;;;;;;;4978401;28;20258;-86
2020/12/30 00:48:58;;;;;;;7.85;7.25;;;;;;;;;;4989963;28;20172;-85
2020/12/30 00:51:25;;;;;;;8.85;7.95;;;;;;;;;;4989096;28;20192;-86
2020/12/30 00:53:51;;;;;;;8.60;5.82;;;;;;;;;;4997410;28;20163;-86
2020/12/30 00:56:21;;;;;;;9.13;7.95;;;;;;;;;;4986494;28;20184;-85
2020/12/30 00:58:52;;;;;;;9.77;8.77;;;;;;;;;;4994900;28;20185;-85
2020/12/30 01:01:23;;;;;;;7.55;6.75;;;;;;;;;;4981027;28;20191;-84
2020/12/30 01:04:15;;;;;;;9.13;7.75;;;;;;;;;;4998411;28;20570;-85
2020/12/30 01:06:44;;;;;;;9.98;9.10;;;;;;;;;;4990578;28;20172;-85
2020/12/30 01:09:16;;;;;;;7.50;6.50;;;;;;;;;;4987613;28;20169;-86
2020/12/30 01:11:57;;;;;;;;;;;;;;;;;;;;;
2020/12/30 01:14:34;;;;;;;;;;;;;;;;;;;;;
2020/12/30 01:17:03;;;;;;;7.30;6.55;;;;;;;;;;4986241;28;20168;-85
2020/12/30 01:19:42;;;;;;;7.05;6.35;;;;;;;;;;4971392;28;20610;-83
2020/12/30 01:22:14;;;;;;;6.97;6.45;;;;;;;;;;5001469;28;20228;-86
2020/12/30 01:24:40;;;;;;;7.78;6.90;;;;;;;;;;4993563;28;20179;-86
2020/12/30 01:27:17;;;;;;;;;;;;;;;;;;;;;
2020/12/30 01:29:46;;;;;;;6.32;5.82;;;;;;;;;;5007658;28;20227;-85
2020/12/30 01:32:13;;;;;;;7.50;6.80;;;;;;;;;;5008149;28;20161;-85
2020/12/30 01:34:39;;;;;;;7.45;6.88;;;;;;;;;;4974794;28;20176;-85
2020/12/30 01:37:05;;;;;;;6.80;6.20;;;;;;;;;;5005892;28;20208;-86
2020/12/30 01:39:31;;;;;;;6.97;6.35;;;;;;;;;;5006973;28;20204;-84
2020/12/30 01:42:14;;;;;;;;;;;;;;;;;;;;;
2020/12/30 01:44:43;;;;;;;9.05;8.25;;;;;;;;;;4985926;28;20183;-86
2020/12/30 01:47:09;;;;;;;8.05;7.40;;;;;;;;;;4987852;28;20235;-86
2020/12/30 01:49:45;;;;;;;7.25;6.65;;;;;;;;;;4987690;28;20203;-86
2020/12/30 01:52:22;;;;;;;7.50;6.80;;;;;;;;;;4987229;28;20168;-85
2020/12/30 01:54:48;;;;;;;7.60;6.97;;;;;;;;;;4989312;28;20259;-86
2020/12/30 01:57:14;;;;;;;9.02;8.23;;;;;;;;;;5007368;28;20617;-84
2020/12/30 01:59:41;;;;;;;8.32;6.57;;;;;;;;;;5004936;28;20196;-86
2020/12/30 02:02:07;;;;;;;6.72;6.22;;;;;;;;;;5004375;28;20161;-86
2020/12/30 02:04:42;;;;;;;7.28;6.32;;;;;;;;;;4993197;28;20216;-86
2020/12/30 02:07:08;;;;;;;6.22;5.72;;;;;;;;;;4998404;28;20156;-86
2020/12/30 02:09:34;;;;;;;7.15;6.45;;;;;;;;;;4984186;28;20212;-86
2020/12/30 02:12:01;;;;;;;7.32;6.35;;;;;;;;;;5011220;28;20180;-85
2020/12/30 02:14:27;;;;;;;7.03;6.30;;;;;;;;;;4994895;28;20169;-84
2020/12/30 02:16:57;;;;;;;7.90;7.20;;;;;;;;;;5017605;28;20179;-85
2020/12/30 02:19:26;;;;;;;8.48;7.78;;;;;;;;;;5017916;28;20302;-84
2020/12/30 02:21:55;;;;;;;6.38;5.78;;;;;;;;;;5001773;28;20179;-85
2020/12/30 02:24:27;;;;;;;6.53;5.93;;;;;;;;;;4999298;28;20236;-84
2020/12/30 02:26:57;;;;;;;8.02;6.50;;;;;;;;;;5015911;28;20172;-84
2020/12/30 02:29:23;;;;;;;7.03;6.43;;;;;;;;;;4983181;28;20201;-85
2020/12/30 02:31:50;;;;;;;7.68;6.97;;;;;;;;;;4961233;28;20180;-85
2020/12/30 02:34:16;;;;;;;7.22;6.72;;;;;;;;;;4996314;28;20165;-85
2020/12/30 02:36:43;;;;;;;6.35;5.80;;;;;;;;;;4962009;28;20173;-86
2020/12/30 02:39:09;;;;;;;6.10;5.35;;;;;;;;;;4977533;28;20197;-86
2020/12/30 02:41:36;;;;;;;7.00;6.40;;;;;;;;;;4978098;28;20169;-86
2020/12/30 02:44:03;;;;;;;5.50;5.10;;;;;;;;;;4978472;28;20176;-86
2020/12/30 02:46:29;;;;;;;6.63;5.55;;;;;;;;;;4978649;28;20209;-85
2020/12/30 02:48:56;;;;;;;5.78;5.28;;;;;;;;;;4979602;28;20179;-87
2020/12/30 02:51:22;;;;;;;8.52;7.07;;;;;;;;;;4982082;28;20233;-87
2020/12/30 02:53:48;;;;;;;10.07;7.50;;;;;;;;;;4965674;28;20192;-84
2020/12/30 02:56:17;;;;;;;10.32;9.05;;;;;;;;;;4981514;28;20177;-86
2020/12/30 02:58:43;;;;;;;10.30;9.27;;;;;;;;;;4980558;28;20286;-85
2020/12/30 03:01:17;;;;;;;9.00;8.20;;;;;;;;;;4999318;28;20285;-85
2020/12/30 03:03:47;;;;;;;8.45;5.82;;;;;;;;;;5013776;28;20168;-85
2020/12/30 03:06:13;;;;;;;6.75;6.05;;;;;;;;;;4980844;28;20161;-85
2020/12/30 03:08:39;;;;;;;7.00;6.30;;;;;;;;;;4984201;28;20252;-84
2020/12/30 03:11:08;;;;;;;6.65;6.05;;;;;;;;;;4999320;28;20228;-86
2020/12/30 03:13:48;;;;;;;;;;;;;;;;;;;;;
2020/12/30 03:16:17;;;;;;;6.80;6.20;;;;;;;;;;4999613;28;20176;-85
2020/12/30 03:18:47;;;;;;;5.82;5.25;;;;;;;;;;4999645;28;20244;-86
2020/12/30 03:21:13;;;;;;;5.80;4.40;;;;;;;;;;4999936;28;20215;-84
2020/12/30 03:23:45;;;;;;;5.53;4.78;;;;;;;;;;4983626;28;20184;-85
2020/12/30 03:26:11;;;;;;;8.95;5.97;;;;;;;;;;5017445;28;20165;-84
2020/12/30 03:28:38;;;;;;;6.85;5.95;;;;;;;;;;5017045;28;20144;-84
2020/12/30 03:31:04;;;;;;;8.95;6.75;;;;;;;;;;4982121;28;20201;-84
2020/12/30 03:33:30;;;;;;;5.82;5.43;;;;;;;;;;4969870;28;20169;-85
2020/12/30 03:35:56;;;;;;;6.45;5.68;;;;;;;;;;4989608;28;20172;-84
2020/12/30 03:38:28;;;;;;;9.70;5.00;;;;;;;;;;4955389;28;20249;-84
2020/12/30 03:40:57;;;;;;;6.57;5.32;;;;;;;;;;4988137;28;20197;-85
2020/12/30 03:43:23;;;;;;;8.52;6.30;;;;;;;;;;4988127;28;20173;-85
2020/12/30 03:45:52;;;;;;;5.72;5.22;;;;;;;;;;4994842;28;20153;-85
2020/12/30 03:48:23;;;;;;;4.55;4.05;;;;;;;;;;4957667;28;20217;-85
2020/12/30 03:50:55;;;;;;;5.43;5.10;;;;;;;;;;4957226;28;20185;-84
2020/12/30 03:53:21;;;;;;;4.93;4.53;;;;;;;;;;4972520;28;20173;-85
2020/12/30 03:55:47;;;;;;;6.55;5.95;;;;;;;;;;4957866;28;20169;-85
2020/12/30 03:58:13;;;;;;;6.05;4.38;;;;;;;;;;4990074;28;20174;-85
2020/12/30 04:00:40;;;;;;;6.13;5.53;;;;;;;;;;4972064;28;20216;-86
2020/12/30 04:03:08;;;;;;;4.93;4.53;;;;;;;;;;4956581;28;20330;-86
2020/12/30 04:05:34;;;;;;;13.60;6.95;;;;;;;;;;4954448;28;20180;-85
2020/12/30 04:08:01;;;;;;;5.63;5.13;;;;;;;;;;4986158;28;20173;-85
2020/12/30 04:10:27;;;;;;;6.72;5.30;;;;;;;;;;4969870;28;20236;-85
2020/12/30 04:12:53;;;;;;;8.75;6.70;;;;;;;;;;4987831;28;20172;-84
2020/12/30 04:15:22;;;;;;;7.70;5.15;;;;;;;;;;4963147;28;20247;-85
2020/12/30 04:17:50;;;;;;;6.22;5.65;;;;;;;;;;4954297;28;20193;-85
2020/12/30 04:20:20;;;;;;;5.85;5.35;;;;;;;;;;4954707;28;20209;-84
2020/12/30 04:22:49;;;;;;;5.85;4.80;;;;;;;;;;4971534;28;20638;-84
2020/12/30 04:25:15;;;;;;;5.97;5.47;;;;;;;;;;4970920;28;20181;-84
2020/12/30 04:27:44;;;;;;;4.70;4.40;;;;;;;;;;4971699;28;20180;-85
2020/12/30 04:30:24;;;;;;;4.85;4.45;;;;;;;;;;4972253;28;20608;-84
2020/12/30 04:32:50;;;;;;;5.78;4.68;;;;;;;;;;4985790;28;20232;-85
2020/12/30 04:35:16;;;;;;;11.18;6.53;;;;;;;;;;4989373;28;20177;-87
2020/12/30 04:37:42;;;;;;;4.78;4.28;;;;;;;;;;4990338;28;20177;-83
2020/12/30 04:40:08;;;;;;;5.78;5.20;;;;;;;;;;4974107;28;20224;-87
2020/12/30 04:42:36;;;;;;;5.07;4.57;;;;;;;;;;4991602;28;20169;-85
2020/12/30 04:45:06;;;;;;;5.53;5.13;;;;;;;;;;4992532;28;20229;-85
2020/12/30 04:47:33;;;;;;;7.35;6.85;;;;;;;;;;4994472;28;20184;-85
2020/12/30 04:50:04;;;;;;;5.93;5.43;;;;;;;;;;4993056;28;20189;-85
2020/12/30 04:52:30;;;;;;;5.30;4.60;;;;;;;;;;4961752;28;20209;-84
2020/12/30 04:54:58;;;;;;;5.28;4.88;;;;;;;;;;4979253;28;20229;-85
2020/12/30 04:57:29;;;;;;;5.65;5.20;;;;;;;;;;5001568;28;20173;-87
2020/12/30 05:00:05;;;;;;;;;;;;;;;;;;;;;
2020/12/30 05:02:35;;;;;;;5.32;4.38;;;;;;;;;;4984323;28;20154;-85
2020/12/30 05:05:02;;;;;;;8.45;5.15;;;;;;;;;;4963366;28;20200;-85
2020/12/30 05:07:29;;;;;;;5.65;5.15;;;;;;;;;;4994261;28;20180;-86
2020/12/30 05:09:56;;;;;;;6.80;4.68;;;;;;;;;;4978041;28;20388;-86
2020/12/30 05:12:22;;;;;;;7.38;5.60;;;;;;;;;;4979952;28;20181;-87
2020/12/30 05:14:49;;;;;;;6.18;5.65;;;;;;;;;;4995709;28;20212;-87
2020/12/30 05:17:16;;;;;;;4.70;4.30;;;;;;;;;;4996769;28;20224;-87
2020/12/30 05:19:43;;;;;;;5.57;4.95;;;;;;;;;;4979652;28;20217;-87
2020/12/30 05:22:14;;;;;;;8.70;6.57;;;;;;;;;;4995852;28;20172;-86
2020/12/30 05:24:41;;;;;;;6.70;6.13;;;;;;;;;;4996616;28;20164;-86
2020/12/30 05:27:07;;;;;;;6.70;6.00;;;;;;;;;;4997665;28;20192;-86
2020/12/30 05:29:33;;;;;;;5.35;4.82;;;;;;;;;;4981308;28;20181;-86
2020/12/30 05:32:02;;;;;;;8.15;6.85;;;;;;;;;;5008289;28;20176;-86
2020/12/30 05:34:28;;;;;;;6.65;6.05;;;;;;;;;;4996287;28;20173;-87
2020/12/30 05:36:54;;;;;;;6.15;5.65;;;;;;;;;;5016464;28;20165;-85
2020/12/30 05:39:31;;;;;;;6.55;5.90;;;;;;;;;;5001686;28;20251;-85
2020/12/30 05:42:09;;;;;;;7.72;6.97;;;;;;;;;;4997661;28;20176;-87
2020/12/30 05:44:35;;;;;;;5.15;4.65;;;;;;;;;;4986632;28;20210;-86
2020/12/30 05:47:18;;;;;;;6.70;5.97;;;;;;;;;;4998842;28;20235;-86
2020/12/30 05:49:45;;;;;;;6.85;6.15;;;;;;;;;;5003221;28;20188;-85
2020/12/30 05:52:34;;;;;;;5.18;4.78;;;;;;;;;;4983960;28;20212;-86
2020/12/30 05:55:09;;;;;;;8.68;5.35;;;;;;;;;;4979371;28;20184;-86
2020/12/30 05:57:38;;;;;;;8.82;5.13;;;;;;;;;;4981373;28;20164;-86
2020/12/30 06:00:05;;;;;;;5.95;5.45;;;;;;;;;;4979102;28;20209;-86
2020/12/30 06:02:43;;;;;;;5.70;5.20;;;;;;;;;;4980525;28;20149;-85
2020/12/30 06:05:10;;;;;;;13.48;6.07;;;;;;;;;;4959637;28;20174;-86
2020/12/30 06:07:40;;;;;;;6.90;6.40;;;;;;;;;;4960640;28;20179;-85
2020/12/30 06:10:10;;;;;;;6.30;5.68;;;;;;;;;;4993633;28;20216;-85
2020/12/30 06:12:57;;;;;;;6.32;5.68;;;;;;;;;;4983611;28;20191;-85
2020/12/30 06:15:25;;;;;;;6.32;5.72;;;;;;;;;;4972463;28;20185;-87
2020/12/30 06:17:52;;;;;;;8.40;6.50;;;;;;;;;;4975845;28;20183;-86
2020/12/30 06:20:33;;;;;;;6.20;5.60;;;;;;;;;;5010664;28;20282;-87
2020/12/30 06:23:04;;;;;;;9.07;5.93;;;;;;;;;;4990874;28;20172;-86
2020/12/30 06:25:34;;;;;;;6.45;5.85;;;;;;;;;;4992090;28;20169;-86
2020/12/30 06:28:15;;;;;;;6.30;5.65;;;;;;;;;;4993088;28;20176;-87
2020/12/30 06:30:42;;;;;;;6.82;5.57;;;;;;;;;;4985721;28;20200;-87
2020/12/30 06:33:23;;;;;;;8.50;7.78;;;;;;;;;;5006212;28;20232;-85
2020/12/30 06:35:54;;;;;;;8.35;7.72;;;;;;;;;;5004937;28;20224;-85
2020/12/30 06:38:29;;;;;;;7.57;6.78;;;;;;;;;;4990050;28;20160;-85
2020/12/30 06:41:18;;;;;;;;;;;;;;;;;;;;;
2020/12/30 06:43:52;;;;;;;9.82;7.18;;;;;;;;;;5009725;28;20191;-85
2020/12/30 06:46:25;;;;;;;9.55;7.25;;;;;;;;;;4987620;28;20176;-86
2020/12/30 06:48:58;;;;;;;6.63;6.10;;;;;;;;;;4969887;28;20196;-86
2020/12/30 06:51:36;;;;;;;8.13;7.43;;;;;;;;;;4974821;28;20193;-87
2020/12/30 06:54:03;;;;;;;6.80;6.20;;;;;;;;;;5000728;28;20176;-86
2020/12/30 06:56:43;;;;;;;7.22;6.60;;;;;;;;;;4988554;28;20339;-86
2020/12/30 06:59:16;;;;;;;7.57;5.50;;;;;;;;;;5007287;28;20180;-87
2020/12/30 07:02:02;;;;;;;8.10;6.93;;;;;;;;;;4971722;28;20172;-86
2020/12/30 07:04:29;;;;;;;7.20;6.30;;;;;;;;;;4986035;28;20172;-85
2020/12/30 07:06:59;;;;;;;6.65;6.05;;;;;;;;;;4985688;28;20180;-86
2020/12/30 07:09:42;;;;;;;7.07;6.38;;;;;;;;;;4970410;28;20208;-86
2020/12/30 07:12:19;;;;;;;;;;;;;;;;;;;;;
2020/12/30 07:14:46;;;;;;;6.72;6.03;;;;;;;;;;4993200;28;20180;-86
2020/12/30 07:17:25;;;;;;;;;;;;;;;;;;;;;
2020/12/30 07:19:57;;;;;;;7.07;6.22;;;;;;;;;;4989515;28;20231;-86
2020/12/30 07:22:26;;;;;;;9.60;5.75;;;;;;;;;;4974310;28;20180;-87
2020/12/30 07:24:59;;;;;;;10.20;7.15;;;;;;;;;;4976266;28;20181;-86
2020/12/30 07:27:29;;;;;;;11.02;7.72;;;;;;;;;;4988562;28;20185;-86
2020/12/30 07:29:55;;;;;;;8.27;7.13;;;;;;;;;;4989483;28;20208;-85
2020/12/30 07:32:21;;;;;;;9.05;8.20;;;;;;;;;;4985769;28;20184;-86
2020/12/30 07:35:01;;;;;;;7.90;7.30;;;;;;;;;;4991493;28;20204;-86
2020/12/30 07:37:37;;;;;;;;;;;;;;;;;;;;;
2020/12/30 07:40:16;;;;;;;;;;;;;;;;;;;;;
2020/12/30 07:43:05;;;;;;;;;;;;;;;;;;;;;
2020/12/30 07:46:01;;;;;;;;;;;;;;;;;;;;;
2020/12/30 07:48:28;;;;;;;13.93;8.77;;;;;;;;;;4988356;28;20534;-86
2020/12/30 07:50:54;;;;;;;11.73;8.80;;;;;;;;;;4988250;28;20204;-86
2020/12/30 07:53:40;;;;;;;60.78;46.95;;;;;;;;;;5004633;28;20215;-86
2020/12/30 07:56:26;;;;;;;13.45;11.20;;;;;;;;;;4986039;28;20195;-87
2020/12/30 07:59:15;;;;;;;10.82;8.45;;;;;;;;;;4992763;28;20157;-86
2020/12/30 08:02:07;;;;;;;9.93;8.93;;;;;;;;;;4962256;28;20169;-85
2020/12/30 08:04:36;;;;;;;14.93;9.70;;;;;;;;;;4978943;28;20244;-86
2020/12/30 08:07:16;;;;;;;8.38;7.68;;;;;;;;;;4975251;28;20257;-86
2020/12/30 08:09:46;;;;;;;9.02;7.97;;;;;;;;;;4992216;22;20220;-81
2020/12/30 08:12:13;;;;;;;10.77;9.68;;;;;;;;;;4988855;28;20193;-83
2020/12/30 08:14:43;;;;;;;14.38;8.82;;;;;;;;;;5004960;28;20165;-82
2020/12/30 08:17:11;;;;;;;11.18;8.23;;;;;;;;;;4991565;28;20656;-83
2020/12/30 08:19:39;;;;;;;8.57;7.68;;;;;;;;;;4986130;28;20286;-84
2020/12/30 08:22:05;;;;;;;9.90;8.88;;;;;;;;;;4988011;28;20165;-81
2020/12/30 08:24:32;;;;;;;12.82;8.55;;;;;;;;;;4988854;28;20172;-82
2020/12/30 08:26:58;;;;;;;11.30;9.48;;;;;;;;;;4995310;28;20200;-81
2020/12/30 08:29:31;;;;;;;9.40;8.57;;;;;;;;;;4969125;28;20179;-83
2020/12/30 08:31:59;;;;;;;12.38;9.57;;;;;;;;;;4968162;28;20196;-82
2020/12/30 08:34:35;;;;;;;8.88;8.07;;;;;;;;;;4985510;28;20196;-81
2020/12/30 08:37:08;;;;;;;13.25;11.88;;;;;;;;;;4955003;28;20531;-82
2020/12/30 08:39:36;;;;;;;15.93;10.88;;;;;;;;;;4984715;28;20173;-82
2020/12/30 08:42:07;;;;;;;8.50;7.72;;;;;;;;;;4985303;28;20586;-82
2020/12/30 08:44:34;;;;;;;10.18;9.32;;;;;;;;;;4967611;28;20158;-82
2020/12/30 08:47:03;;;;;;;9.52;8.52;;;;;;;;;;4967552;28;20172;-82
2020/12/30 08:49:31;;;;;;;12.23;10.00;;;;;;;;;;4985542;28;20173;-82
2020/12/30 08:51:57;;;;;;;8.85;8.05;;;;;;;;;;4985344;28;20208;-82
2020/12/30 08:54:26;;;;;;;9.40;7.90;;;;;;;;;;4982228;28;20253;-82
2020/12/30 08:57:03;;;;;;;7.72;7.03;;;;;;;;;;4985354;28;20718;-83
2020/12/30 08:59:30;;;;;;;9.38;7.45;;;;;;;;;;4987730;28;20177;-81
2020/12/30 09:02:11;;;;;;;7.13;6.57;;;;;;;;;;4982757;28;20228;-80
2020/12/30 09:04:37;;;;;;;8.82;8.02;;;;;;;;;;4998508;28;20150;-82
2020/12/30 09:07:03;;;;;;;9.95;8.50;;;;;;;;;;4984336;28;20185;-82
2020/12/30 09:09:29;;;;;;;7.55;6.85;;;;;;;;;;5000648;28;20263;-83
2020/12/30 09:11:55;;;;;;;9.88;8.98;;;;;;;;;;5000418;28;20208;-84
2020/12/30 09:14:22;;;;;;;6.82;6.28;;;;;;;;;;4987356;28;20221;-82
2020/12/30 09:16:51;;;;;;;7.88;7.25;;;;;;;;;;4984334;28;20177;-82
2020/12/30 09:19:18;;;;;;;8.00;6.35;;;;;;;;;;4984418;28;20193;-81
2020/12/30 09:21:44;;;;;;;9.40;8.60;;;;;;;;;;4984212;28;20193;-81
2020/12/30 09:24:14;;;;;;;7.75;7.05;;;;;;;;;;4985099;28;20166;-82
2020/12/30 09:26:40;;;;;;;6.93;5.90;;;;;;;;;;4951783;28;20208;-81
2020/12/30 09:29:16;;;;;;;7.15;6.45;;;;;;;;;;4952238;28;20185;-82
2020/12/30 09:31:50;;;;;;;7.97;7.28;;;;;;;;;;4983431;28;20584;-81
2020/12/30 09:34:17;;;;;;;9.00;8.00;;;;;;;;;;4984674;28;20163;-82
2020/12/30 09:36:57;;;;;;;8.32;7.53;;;;;;;;;;4966556;28;20523;-82
2020/12/30 09:39:23;;;;;;;9.40;8.10;;;;;;;;;;4966943;28;20203;-82
2020/12/30 09:41:50;;;;;;;9.05;8.15;;;;;;;;;;4984417;28;20182;-82
2020/12/30 09:44:16;;;;;;;9.57;8.55;;;;;;;;;;4967308;28;20173;-81
2020/12/30 09:46:49;;;;;;;9.75;8.98;;;;;;;;;;4967224;28;20267;-81
2020/12/30 09:49:16;;;;;;;8.63;7.80;;;;;;;;;;4983968;28;20181;-81
2020/12/30 09:51:42;;;;;;;7.10;6.50;;;;;;;;;;4984163;28;20663;-82
2020/12/30 09:54:08;;;;;;;8.45;7.63;;;;;;;;;;5001460;28;20183;-82
2020/12/30 09:56:34;;;;;;;11.75;8.50;;;;;;;;;;5003450;28;20164;-82
2020/12/30 09:59:02;;;;;;;9.73;8.10;;;;;;;;;;4997582;28;20226;-83
2020/12/30 10:01:30;;;;;;;9.82;8.93;;;;;;;;;;4983867;28;20190;-82
2020/12/30 10:03:56;;;;;;;10.05;8.05;;;;;;;;;;4983728;28;20184;-85
2020/12/30 10:06:22;;;;;;;9.23;7.55;;;;;;;;;;4983526;28;20169;-82
2020/12/30 10:08:48;;;;;;;8.60;7.90;;;;;;;;;;4965407;28;20269;-83
2020/12/30 10:11:17;;;;;;;10.10;8.32;;;;;;;;;;4995451;28;20208;-82
2020/12/30 10:13:43;;;;;;;7.35;6.75;;;;;;;;;;4986570;28;20212;-82
2020/12/30 10:16:09;;;;;;;9.07;8.27;;;;;;;;;;5002996;28;20183;-82
2020/12/30 10:18:35;;;;;;;12.05;10.85;;;;;;;;;;5004010;28;20204;-81
2020/12/30 10:21:01;;;;;;;15.25;12.40;;;;;;;;;;4975525;28;20209;-83
2020/12/30 10:23:28;;;;;;;14.07;9.65;;;;;;;;;;4968655;28;20231;-81
2020/12/30 10:25:54;;;;;;;10.80;9.52;;;;;;;;;;4966493;28;20544;-80
2020/12/30 10:28:20;;;;;;;8.63;6.85;;;;;;;;;;4985165;28;20192;-81
2020/12/30 10:30:46;;;;;;;10.77;7.88;;;;;;;;;;4983799;28;20197;-82
2020/12/30 10:33:12;;;;;;;8.25;6.90;;;;;;;;;;4983525;28;20169;-82
2020/12/30 10:35:44;;;;;;;7.75;7.05;;;;;;;;;;4967254;28;20173;-83
2020/12/30 10:38:20;;;;;;;7.15;6.55;;;;;;;;;;4998360;28;20200;-85
2020/12/30 10:40:54;;;;;;;8.70;7.90;;;;;;;;;;4971096;28;20216;-82
2020/12/30 10:43:20;;;;;;;6.95;6.20;;;;;;;;;;4990553;28;20165;-83
2020/12/30 10:45:46;;;;;;;6.57;6.07;;;;;;;;;;4999287;28;20224;-82
2020/12/30 10:48:12;;;;;;;8.52;7.65;;;;;;;;;;4998265;28;20193;-83
2020/12/30 10:50:38;;;;;;;8.65;7.93;;;;;;;;;;4997795;28;20185;-82
2020/12/30 10:53:04;;;;;;;9.35;7.20;;;;;;;;;;4984261;28;20169;-82
2020/12/30 10:55:31;;;;;;;6.45;5.88;;;;;;;;;;4988998;28;20183;-83
2020/12/30 10:57:57;;;;;;;7.53;6.70;;;;;;;;;;5003499;28;20169;-83
2020/12/30 11:00:23;;;;;;;7.75;6.95;;;;;;;;;;4986379;28;20588;-82
2020/12/30 11:02:49;;;;;;;7.95;5.93;;;;;;;;;;4985417;28;20176;-83
2020/12/30 11:05:15;;;;;;;8.10;7.40;;;;;;;;;;5001933;28;20172;-83
2020/12/30 11:07:41;;;;;;;8.00;6.53;;;;;;;;;;4985788;28;20161;-82
2020/12/30 11:10:08;;;;;;;7.20;6.47;;;;;;;;;;4984859;28;20211;-83
2020/12/30 11:12:36;;;;;;;8.00;6.93;;;;;;;;;;5003179;28;20277;-82
2020/12/30 11:15:06;;;;;;;7.43;6.75;;;;;;;;;;4985692;28;20538;-82
2020/12/30 11:17:32;;;;;;;10.77;9.77;;;;;;;;;;4969522;28;20184;-83
2020/12/30 11:19:59;;;;;;;99.70;65.28;;;;;;;;;;4983415;28;20223;-83
2020/12/30 11:22:25;;;;;;;10.10;9.15;;;;;;;;;;4983062;28;20205;-83
2020/12/30 11:24:51;;;;;;;10.20;8.70;;;;;;;;;;4993464;28;20185;-83
2020/12/30 11:27:17;;;;;;;12.23;7.45;;;;;;;;;;5002100;28;20591;-82
2020/12/30 11:29:44;;;;;;;9.93;8.98;;;;;;;;;;5002903;28;20176;-83
2020/12/30 11:32:10;;;;;;;8.45;7.65;;;;;;;;;;4991321;28;20192;-84
2020/12/30 11:34:36;;;;;;;6.30;5.80;;;;;;;;;;4985879;28;20553;-83
2020/12/30 11:37:02;;;;;;;8.18;7.20;;;;;;;;;;4972359;28;20562;-82
2020/12/30 11:39:28;;;;;;;7.88;6.47;;;;;;;;;;4982374;28;20227;-83
2020/12/30 11:41:54;;;;;;;8.63;7.80;;;;;;;;;;5008774;28;20229;-83
2020/12/30 11:44:21;;;;;;;8.57;7.75;;;;;;;;;;5008703;28;20172;-84
2020/12/30 11:46:53;;;;;;;8.15;7.00;;;;;;;;;;5006038;28;20168;-84
2020/12/30 11:49:19;;;;;;;11.73;7.45;;;;;;;;;;4991764;28;20178;-84
2020/12/30 11:51:46;;;;;;;10.27;7.13;;;;;;;;;;4992473;28;20192;-82
2020/12/30 11:54:12;;;;;;;11.13;8.57;;;;;;;;;;4991854;28;20183;-83
2020/12/30 11:56:38;;;;;;;14.20;11.43;;;;;;;;;;4993154;28;20188;-83
2020/12/30 11:59:05;;;;;;;8.13;7.32;;;;;;;;;;4992121;28;20247;-83
2020/12/30 12:01:32;;;;;;;8.88;8.10;;;;;;;;;;4995251;28;20675;-83
2020/12/30 12:03:59;;;;;;;8.75;5.72;;;;;;;;;;4992671;28;20167;-83
2020/12/30 12:06:26;;;;;;;9.20;7.63;;;;;;;;;;5011312;28;20168;-82
2020/12/30 12:08:56;;;;;;;8.15;7.53;;;;;;;;;;4977049;28;20236;-82
2020/12/30 12:11:22;;;;;;;7.57;6.88;;;;;;;;;;5004889;28;20219;-84
2020/12/30 12:13:48;;;;;;;7.80;7.10;;;;;;;;;;4985572;28;20192;-81
2020/12/30 12:16:15;;;;;;;8.70;7.80;;;;;;;;;;4987412;28;20247;-83
2020/12/30 12:18:41;;;;;;;10.18;9.18;;;;;;;;;;4985282;28;20165;-85
2020/12/30 12:21:11;;;;;;;7.38;6.65;;;;;;;;;;5012352;28;20234;-86
2020/12/30 12:23:52;;;;;;;8.00;7.25;;;;;;;;;;5002870;28;20149;-84
2020/12/30 12:26:22;;;;;;;8.48;7.68;;;;;;;;;;5000309;28;20193;-85
2020/12/30 12:28:50;;;;;;;11.32;7.60;;;;;;;;;;5015276;28;20172;-84
2020/12/30 12:31:16;;;;;;;6.18;5.60;;;;;;;;;;5007820;28;20193;-85
2020/12/30 12:33:42;;;;;;;7.10;6.50;;;;;;;;;;5011453;28;20157;-86
2020/12/30 12:36:12;;;;;;;9.90;7.05;;;;;;;;;;5006060;28;20215;-84
2020/12/30 12:38:38;;;;;;;8.07;7.38;;;;;;;;;;4984037;28;20173;-83
2020/12/30 12:41:04;;;;;;;11.77;8.13;;;;;;;;;;5002364;28;20204;-83
2020/12/30 12:43:30;;;;;;;7.63;6.07;;;;;;;;;;4984516;28;20172;-83
2020/12/30 12:45:56;;;;;;;6.18;5.63;;;;;;;;;;4965062;28;20200;-82
2020/12/30 12:48:22;;;;;;;7.97;7.15;;;;;;;;;;4986313;28;20177;-83
2020/12/30 12:50:49;;;;;;;27.23;17.48;;;;;;;;;;5003624;28;20683;-83
2020/12/30 12:53:15;;;;;;;8.57;7.53;;;;;;;;;;5003601;28;20186;-83
2020/12/30 12:55:43;;;;;;;8.18;7.25;;;;;;;;;;4985365;28;20169;-83
2020/12/30 12:58:09;;;;;;;8.00;7.22;;;;;;;;;;4986067;28;20212;-83
2020/12/30 13:00:35;;;;;;;7.20;6.60;;;;;;;;;;5003302;28;20222;-83
2020/12/30 13:03:02;;;;;;;13.27;8.10;;;;;;;;;;4979751;28;20182;-83
2020/12/30 13:05:28;;;;;;;9.45;8.50;;;;;;;;;;4983952;28;20636;-83
2020/12/30 13:07:54;;;;;;;8.60;7.78;;;;;;;;;;4988674;28;20650;-83
2020/12/30 13:10:20;;;;;;;8.10;7.10;;;;;;;;;;5007406;28;20647;-84
2020/12/30 13:12:46;;;;;;;10.75;6.95;;;;;;;;;;4990541;28;20454;-84
2020/12/30 13:15:12;;;;;;;8.55;7.40;;;;;;;;;;5007570;28;20188;-83
2020/12/30 13:17:39;;;;;;;11.15;9.20;;;;;;;;;;5008255;28;20176;-83
2020/12/30 13:20:05;;;;;;;7.30;6.65;;;;;;;;;;5012210;28;20209;-86
2020/12/30 13:22:31;;;;;;;12.00;9.57;;;;;;;;;;5006007;28;20185;-86
2020/12/30 13:24:57;;;;;;;8.63;7.13;;;;;;;;;;5006468;28;20207;-82
2020/12/30 13:27:23;;;;;;;8.90;7.35;;;;;;;;;;4997529;28;20165;-83
2020/12/30 13:29:51;;;;;;;8.77;7.93;;;;;;;;;;4960337;28;20187;-84
2020/12/30 13:32:17;;;;;;;8.07;7.38;;;;;;;;;;5001946;28;20647;-84
2020/12/30 13:34:43;;;;;;;11.50;7.25;;;;;;;;;;4984957;28;20157;-85
2020/12/30 13:37:25;;;;;;;;;;;;;;;;;;;;;
2020/12/30 13:39:52;;;;;;;13.70;9.60;;;;;;;;;;5003970;28;20494;-84
2020/12/30 13:42:18;;;;;;;11.23;10.03;;;;;;;;;;4987654;28;20487;-84
2020/12/30 13:44:45;;;;;;;13.70;8.43;;;;;;;;;;4987710;28;20427;-84
2020/12/30 13:47:11;;;;;;;9.30;8.50;;;;;;;;;;4988504;28;20914;-85
2020/12/30 13:49:37;;;;;;;8.87;7.63;;;;;;;;;;5005425;28;20420;-84
2020/12/30 13:52:03;;;;;;;7.85;7.18;;;;;;;;;;5005607;28;20422;-84
2020/12/30 13:54:30;;;;;;;13.25;7.10;;;;;;;;;;4987235;28;20176;-84
2020/12/30 13:56:56;;;;;;;14.68;9.27;;;;;;;;;;4962355;28;20184;-84
2020/12/30 13:59:22;;;;;;;9.60;8.65;;;;;;;;;;4992579;28;20185;-84
2020/12/30 14:01:53;;;;;;;10.05;9.05;;;;;;;;;;4999584;28;20189;-84
2020/12/30 14:04:19;;;;;;;11.30;9.23;;;;;;;;;;4983192;28;20180;-84
2020/12/30 14:07:00;;;;;;;11.02;8.00;;;;;;;;;;4996890;28;20181;-83
2020/12/30 14:09:27;;;;;;;9.68;7.28;;;;;;;;;;4985125;28;20172;-83
2020/12/30 14:11:56;;;;;;;8.52;7.68;;;;;;;;;;5077677;23;20284;-85
2020/12/30 14:14:23;;;;;;;10.13;9.10;;;;;;;;;;4988973;28;20195;-84
2020/12/30 14:16:49;;;;;;;10.15;9.15;;;;;;;;;;4988886;28;20248;-84
2020/12/30 14:19:15;;;;;;;12.18;9.02;;;;;;;;;;4988529;28;20291;-84
2020/12/30 14:21:41;;;;;;;10.88;9.77;;;;;;;;;;4972840;28;20208;-84
2020/12/30 14:24:07;;;;;;;9.02;8.30;;;;;;;;;;4991812;28;20169;-84
2020/12/30 14:26:34;;;;;;;10.23;8.05;;;;;;;;;;4992067;28;20254;-84
2020/12/30 14:29:00;;;;;;;11.40;9.38;;;;;;;;;;4976725;28;20191;-84
2020/12/30 14:31:26;;;;;;;11.70;8.47;;;;;;;;;;4998170;28;20177;-84
2020/12/30 14:33:52;;;;;;;9.35;7.30;;;;;;;;;;4998576;28;20416;-86
2020/12/30 14:36:23;;;;;;;8.38;7.45;;;;;;;;;;4981826;28;20161;-85
2020/12/30 14:38:49;;;;;;;8.55;7.68;;;;;;;;;;4993315;28;20185;-84
2020/12/30 14:41:16;;;;;;;11.30;8.82;;;;;;;;;;4991033;28;20616;-85
2020/12/30 14:43:42;;;;;;;13.57;10.00;;;;;;;;;;4987772;28;20523;-84
2020/12/30 14:46:09;;;;;;;11.00;8.33;;;;;;;;;;4991660;28;20421;-84
2020/12/30 14:48:35;;;;;;;7.82;7.20;;;;;;;;;;4990798;28;20416;-84
2020/12/30 14:51:01;;;;;;;9.18;8.38;;;;;;;;;;4974206;28;20229;-85
2020/12/30 14:53:27;;;;;;;11.00;7.38;;;;;;;;;;4977652;28;20183;-84
2020/12/30 14:55:54;;;;;;;9.75;7.47;;;;;;;;;;4960556;28;20181;-85
2020/12/30 14:58:23;;;;;;;11.00;8.33;;;;;;;;;;4977721;28;20176;-85
2020/12/30 15:00:49;;;;;;;12.52;7.60;;;;;;;;;;4976341;28;20496;-85
2020/12/30 15:03:16;;;;;;;13.88;10.38;;;;;;;;;;4975895;28;20189;-84
2020/12/30 15:05:43;;;;;;;9.20;8.30;;;;;;;;;;4974629;28;20174;-84
2020/12/30 15:08:10;;;;;;;12.77;9.95;;;;;;;;;;4972095;28;20441;-85